Time;durP1;ratioP1;P1;durP2;ratioP2;P2;SDS_P1;SDS_P2;PMS_P1;PMS_P2;Temp;Humidity;BMP_temperature;BMP_pressure;BME280_temperature;BME280_humidity;BME280_pressure;Samples;Min_cycle;Max_cycle;Signal;HPM_P1;HPM_P2
2023/11/05 00:00:29;;;;;;;0.60;0.50;;;;;;;9.77;72.69;96292.56;109369;1253;60804;-87
2023/11/05 00:02:56;;;;;;;0.40;0.40;;;;;;;9.74;72.43;96295.30;109645;1253;58444;-84
2023/11/05 00:05:23;;;;;;;0.60;0.50;;;;;;;9.73;72.45;96310.02;109587;1253;72228;-86
2023/11/05 00:07:51;;;;;;;0.80;0.80;;;;;;;9.73;72.66;96307.75;109282;1252;73007;-86
2023/11/05 00:10:18;;;;;;;2.30;0.70;;;;;;;9.72;72.99;96315.17;109106;1253;72861;-86
2023/11/05 00:12:45;;;;;;;0.80;0.80;;;;;;;9.70;72.93;96310.73;109203;1253;60740;-88
2023/11/05 00:15:12;;;;;;;1.00;0.70;;;;;;;9.69;72.99;96313.86;109319;1253;58947;-87
2023/11/05 00:17:39;;;;;;;0.80;0.60;;;;;;;9.67;73.07;96310.49;109320;1252;71639;-87
2023/11/05 00:20:09;;;;;;;0.70;0.60;;;;;;;9.66;73.35;96305.09;109151;1252;74249;-88
2023/11/05 00:22:37;;;;;;;0.60;0.50;;;;;;;9.64;73.77;96304.40;109218;1253;72302;-88
2023/11/05 00:25:05;;;;;;;1.00;0.80;;;;;;;9.61;73.40;96307.12;109264;1252;61918;-88
2023/11/05 00:27:32;;;;;;;1.20;0.60;;;;;;;9.59;73.52;96301.06;109182;1252;59006;-88
2023/11/05 00:29:59;;;;;;;3.20;0.70;;;;;;;9.57;73.65;96306.65;109152;1253;72998;-88
2023/11/05 00:32:26;;;;;;;0.70;0.50;;;;;;;9.55;73.91;96311.69;109190;1252;72807;-88
2023/11/05 00:34:53;;;;;;;1.70;0.50;;;;;;;9.53;73.62;96317.45;109238;1252;72497;-87
2023/11/05 00:37:20;;;;;;;1.60;0.50;;;;;;;9.50;73.47;96315.95;109291;1252;61854;-88
2023/11/05 00:39:48;;;;;;;0.70;0.60;;;;;;;9.46;73.89;96324.15;109223;1253;60356;-87
2023/11/05 00:42:15;;;;;;;0.80;0.50;;;;;;;9.43;74.07;96324.08;109335;1253;72444;-88
2023/11/05 00:44:42;;;;;;;0.90;0.70;;;;;;;9.39;73.95;96326.41;109241;1253;73024;-88
2023/11/05 00:47:09;;;;;;;0.70;0.50;;;;;;;9.36;74.18;96330.83;109099;1254;71743;-88
2023/11/05 00:49:36;;;;;;;1.30;0.60;;;;;;;9.32;73.83;96328.73;109165;1253;62827;-88
2023/11/05 00:52:04;;;;;;;0.90;0.60;;;;;;;9.30;73.92;96339.30;109237;1253;60271;-88
2023/11/05 00:54:31;;;;;;;1.10;0.40;;;;;;;9.28;73.36;96345.00;109192;1253;73748;-88
2023/11/05 00:56:58;;;;;;;1.10;0.50;;;;;;;9.28;73.15;96343.09;108901;1256;73482;-88
2023/11/05 00:59:25;;;;;;;1.50;0.80;;;;;;;9.28;73.27;96344.13;108886;1256;73081;-88
2023/11/05 01:01:52;;;;;;;1.10;0.70;;;;;;;9.29;73.32;96347.45;108925;1256;61996;-88
2023/11/05 01:04:19;;;;;;;1.30;0.60;;;;;;;9.30;73.99;96348.44;108981;1256;60435;-87
2023/11/05 01:06:46;;;;;;;2.00;0.70;;;;;;;9.29;74.06;96350.30;108917;1256;73704;-87
2023/11/05 01:09:13;;;;;;;1.40;0.70;;;;;;;9.27;74.56;96348.14;108899;1256;73051;-87
2023/11/05 01:11:40;;;;;;;3.20;1.50;;;;;;;9.24;74.70;96348.10;108928;1256;72270;-87
2023/11/05 01:14:07;;;;;;;1.50;0.60;;;;;;;9.20;75.05;96347.38;108872;1256;63038;-87
2023/11/05 01:16:34;;;;;;;0.60;0.60;;;;;;;9.15;74.92;96351.09;109270;1254;59948;-86
2023/11/05 01:19:02;;;;;;;2.40;0.70;;;;;;;9.11;74.87;96346.17;109169;1254;72385;-88
2023/11/05 01:21:29;;;;;;;1.00;0.70;;;;;;;9.07;74.99;96351.94;108985;1256;73790;-88
2023/11/05 01:23:56;;;;;;;1.00;0.60;;;;;;;9.03;74.85;96350.79;108997;1255;71761;-88
2023/11/05 01:26:23;;;;;;;1.70;0.70;;;;;;;9.01;74.51;96343.80;109121;1254;59658;-88
2023/11/05 01:28:50;;;;;;;1.70;1.10;;;;;;;9.01;74.78;96339.24;109142;1253;60783;-88
2023/11/05 01:31:17;;;;;;;1.60;0.70;;;;;;;9.00;75.01;96333.23;109343;1253;75094;-88
2023/11/05 01:33:44;;;;;;;3.30;0.80;;;;;;;8.98;75.29;96336.05;109156;1253;73255;-88
2023/11/05 01:36:11;;;;;;;0.80;0.70;;;;;;;8.96;75.57;96340.08;109102;1254;71698;-88
2023/11/05 01:38:38;;;;;;;1.40;0.70;;;;;;;8.94;75.84;96340.29;109198;1253;62935;-87
2023/11/05 01:41:05;;;;;;;1.60;1.00;;;;;;;8.90;75.84;96337.04;109306;1254;59051;-88
2023/11/05 01:43:32;;;;;;;1.30;0.70;;;;;;;8.86;75.63;96334.89;109275;1253;73698;-87
2023/11/05 01:46:01;;;;;;;1.10;1.00;;;;;;;8.83;75.45;96333.07;109345;1254;73377;-87
2023/11/05 01:48:28;;;;;;;2.60;0.70;;;;;;;8.82;74.99;96337.10;109437;1252;72518;-86
2023/11/05 01:50:55;;;;;;;3.90;0.90;;;;;;;8.82;74.51;96346.01;109256;1253;62098;-87
2023/11/05 01:53:23;;;;;;;2.40;0.60;;;;;;;8.83;74.37;96337.70;109080;1254;60475;-86
2023/11/05 01:55:51;;;;;;;1.10;0.70;;;;;;;8.86;74.81;96347.92;109353;1253;74597;-87
2023/11/05 01:58:18;;;;;;;1.10;0.70;;;;;;;8.86;74.54;96351.48;109424;1252;73596;-86
2023/11/05 02:00:45;;;;;;;1.60;0.80;;;;;;;8.87;74.24;96344.44;109557;1252;72660;-86
2023/11/05 02:03:13;;;;;;;0.90;0.70;;;;;;;8.89;74.15;96358.35;109514;1252;60358;-88
2023/11/05 02:05:43;;;;;;;2.10;0.80;;;;;;;8.90;74.10;96353.48;109649;1252;59306;-86
2023/11/05 02:08:11;;;;;;;2.00;0.80;;;;;;;8.93;73.98;96353.58;109348;1252;71614;-85
2023/11/05 02:10:38;;;;;;;1.40;0.80;;;;;;;8.94;74.07;96350.65;109549;1252;73063;-86
2023/11/05 02:13:07;;;;;;;1.70;0.70;;;;;;;8.94;74.25;96342.33;109396;1252;71248;-86
2023/11/05 02:15:34;;;;;;;1.60;0.80;;;;;;;8.95;74.24;96334.80;109269;1254;63655;-86
2023/11/05 02:18:01;;;;;;;1.10;0.90;;;;;;;8.95;74.34;96339.41;109076;1254;59199;-86
2023/11/05 02:20:28;;;;;;;1.40;0.80;;;;;;;8.95;74.37;96338.36;109127;1254;75485;-86
2023/11/05 02:22:55;;;;;;;0.80;0.70;;;;;;;8.95;74.16;96341.94;108967;1254;71818;-86
2023/11/05 02:25:22;;;;;;;1.60;0.80;;;;;;;8.95;74.95;96341.59;109009;1254;72639;-85
2023/11/05 02:27:50;;;;;;;1.00;0.70;;;;;;;8.95;74.61;96340.33;109150;1254;61876;-85
2023/11/05 02:30:24;;;;;;;2.50;1.00;;;;;;;8.96;74.38;96339.87;109139;1253;59922;-86
2023/11/05 02:32:52;;;;;;;2.40;0.70;;;;;;;8.99;74.17;96343.36;109029;1252;73697;-88
2023/11/05 02:35:20;;;;;;;1.30;0.70;;;;;;;9.02;73.82;96336.45;109276;1253;74013;-86
2023/11/05 02:37:47;;;;;;;0.70;0.70;;;;;;;9.06;73.84;96333.94;109240;1253;73552;-86
2023/11/05 02:40:14;;;;;;;0.90;0.60;;;;;;;9.10;74.21;96324.98;109296;1252;59750;-87
2023/11/05 02:42:42;;;;;;;1.40;0.60;;;;;;;9.13;74.13;96315.92;109254;1252;59765;-86
2023/11/05 02:45:10;;;;;;;1.00;0.50;;;;;;;9.16;73.64;96312.61;109089;1253;72909;-86
2023/11/05 02:47:38;;;;;;;1.10;0.60;;;;;;;9.18;73.22;96314.18;109261;1253;74302;-87
2023/11/05 02:50:07;;;;;;;2.80;0.90;;;;;;;9.21;73.08;96305.68;109170;1253;73058;-86
2023/11/05 02:52:35;;;;;;;0.90;0.60;;;;;;;9.25;73.10;96310.18;109041;1253;61724;-87
2023/11/05 02:55:03;;;;;;;1.40;0.60;;;;;;;9.27;73.21;96312.05;108993;1253;59544;-86
2023/11/05 02:57:30;;;;;;;1.80;0.60;;;;;;;9.30;73.28;96304.81;109067;1254;73321;-86
2023/11/05 02:59:57;;;;;;;2.30;0.50;;;;;;;9.32;73.35;96300.20;109196;1254;73368;-87
2023/11/05 03:02:25;;;;;;;1.80;0.70;;;;;;;9.32;73.46;96293.24;109189;1254;72217;-88
2023/11/05 03:04:57;;;;;;;1.70;0.60;;;;;;;9.30;73.83;96289.08;109149;1253;62037;-88
2023/11/05 03:07:24;;;;;;;1.20;0.50;;;;;;;9.28;74.36;96289.70;109177;1254;60227;-87
2023/11/05 03:09:51;;;;;;;0.50;0.50;;;;;;;9.24;74.49;96283.43;109168;1253;73724;-88
2023/11/05 03:12:18;;;;;;;0.80;0.50;;;;;;;9.20;74.61;96285.41;109187;1254;74300;-87
2023/11/05 03:14:45;;;;;;;1.10;0.60;;;;;;;9.16;74.91;96292.61;109262;1253;74422;-88
2023/11/05 03:17:12;;;;;;;1.70;0.80;;;;;;;9.11;74.66;96279.88;109455;1252;60117;-87
2023/11/05 03:19:39;;;;;;;0.70;0.60;;;;;;;9.07;74.73;96270.85;109531;1253;60179;-87
2023/11/05 03:22:06;;;;;;;0.60;0.50;;;;;;;9.03;74.49;96274.73;109315;1253;74736;-86
2023/11/05 03:24:33;;;;;;;1.00;0.40;;;;;;;9.01;74.37;96286.48;109216;1252;73604;-87
2023/11/05 03:27:01;;;;;;;1.50;0.80;;;;;;;8.99;74.56;96284.75;109321;1253;71457;-86
2023/11/05 03:29:29;;;;;;;1.00;0.40;;;;;;;8.98;74.55;96282.71;109337;1253;60982;-86
2023/11/05 03:31:56;;;;;;;0.60;0.50;;;;;;;8.98;74.61;96281.33;109518;1253;58560;-87
2023/11/05 03:34:23;;;;;;;0.80;0.40;;;;;;;8.97;74.76;96287.09;109510;1253;72528;-87
2023/11/05 03:36:50;;;;;;;0.90;0.40;;;;;;;8.98;74.81;96285.95;109442;1254;74478;-87
2023/11/05 03:39:17;;;;;;;1.20;0.50;;;;;;;8.99;75.16;96282.65;109509;1254;72997;-87
2023/11/05 03:41:44;;;;;;;1.40;0.50;;;;;;;9.00;75.34;96279.12;109535;1253;60615;-86
2023/11/05 03:44:12;;;;;;;0.80;0.50;;;;;;;9.03;75.31;96279.95;109500;1253;59324;-87
2023/11/05 03:46:39;;;;;;;0.70;0.50;;;;;;;9.06;75.22;96279.84;109114;1253;73933;-88
2023/11/05 03:49:07;;;;;;;1.20;0.60;;;;;;;9.10;75.43;96284.26;109242;1253;73345;-87
2023/11/05 03:51:34;;;;;;;1.00;0.70;;;;;;;9.14;75.62;96282.42;109286;1253;70524;-87
2023/11/05 03:54:01;;;;;;;0.50;0.30;;;;;;;9.17;75.95;96271.23;109334;1252;61832;-87
2023/11/05 03:56:28;;;;;;;1.10;0.50;;;;;;;9.21;76.12;96274.46;109300;1252;60081;-87
2023/11/05 03:58:55;;;;;;;0.50;0.50;;;;;;;9.25;76.18;96278.17;109296;1254;72362;-86
2023/11/05 04:01:22;;;;;;;1.50;0.60;;;;;;;9.28;76.35;96265.71;109626;1252;74527;-86
2023/11/05 04:03:49;;;;;;;1.50;1.00;;;;;;;9.31;76.58;96261.30;109658;1252;72687;-87
2023/11/05 04:06:17;;;;;;;1.30;0.50;;;;;;;9.34;76.73;96238.69;109506;1252;60792;-87
2023/11/05 04:08:46;;;;;;;2.90;0.60;;;;;;;9.37;76.97;96234.14;109593;1253;59080;-87
2023/11/05 04:11:15;;;;;;;3.30;0.60;;;;;;;9.38;76.96;96227.18;109495;1252;73314;-87
2023/11/05 04:13:46;;;;;;;0.80;0.60;;;;;;;9.40;76.97;96212.15;109189;1253;73071;-88
2023/11/05 04:16:14;;;;;;;0.60;0.60;;;;;;;9.42;77.21;96186.17;109287;1254;72218;-87
2023/11/05 04:18:44;;;;;;;0.50;0.40;;;;;;;9.39;77.75;96186.55;109206;1253;61828;-86
2023/11/05 04:21:11;;;;;;;0.40;0.40;;;;;;;9.37;77.90;96192.48;109224;1253;58961;-87
2023/11/05 04:23:39;;;;;;;0.70;0.50;;;;;;;9.36;78.12;96195.30;108979;1253;74245;-87
2023/11/05 04:26:06;;;;;;;1.20;0.80;;;;;;;9.35;78.23;96201.11;109187;1254;73426;-87
2023/11/05 04:28:33;;;;;;;3.30;1.30;;;;;;;9.34;78.53;96203.86;109180;1253;72180;-87
2023/11/05 04:31:00;;;;;;;0.70;0.40;;;;;;;9.33;79.05;96203.23;109220;1253;63082;-87
2023/11/05 04:33:28;;;;;;;0.40;0.40;;;;;;;9.31;79.40;96205.83;109193;1254;60126;-87
2023/11/05 04:35:55;;;;;;;0.70;0.40;;;;;;;9.29;79.81;96216.20;109180;1254;72071;-86
2023/11/05 04:38:22;;;;;;;1.30;0.40;;;;;;;9.27;80.10;96208.55;109170;1254;73924;-86
2023/11/05 04:40:50;;;;;;;1.00;0.40;;;;;;;9.25;80.51;96198.88;109148;1253;72489;-86
2023/11/05 04:43:17;;;;;;;1.40;0.50;;;;;;;9.24;80.96;96197.04;109229;1253;62544;-87
2023/11/05 04:45:44;;;;;;;9.10;0.70;;;;;;;9.25;81.15;96194.79;109199;1254;61497;-86
2023/11/05 04:48:12;;;;;;;0.50;0.40;;;;;;;9.27;81.28;96193.53;109257;1253;74252;-86
2023/11/05 04:50:39;;;;;;;1.20;0.50;;;;;;;9.29;81.30;96195.09;109224;1253;73252;-86
2023/11/05 04:53:06;;;;;;;0.40;0.40;;;;;;;9.31;81.56;96198.61;109291;1253;73699;-86
2023/11/05 04:55:33;;;;;;;0.70;0.40;;;;;;;9.34;81.71;96201.73;109115;1254;64113;-86
2023/11/05 04:58:00;;;;;;;0.90;0.50;;;;;;;9.36;81.61;96206.82;109265;1253;60193;-87
2023/11/05 05:00:29;;;;;;;1.40;0.70;;;;;;;9.41;81.79;96206.56;109400;1253;74927;-86
2023/11/05 05:02:56;;;;;;;1.70;0.90;;;;;;;9.45;81.86;96216.21;109339;1253;74310;-86
2023/11/05 05:05:23;;;;;;;1.20;1.10;;;;;;;9.49;82.12;96209.25;109240;1254;71143;-87
2023/11/05 05:07:51;;;;;;;1.50;0.80;;;;;;;9.53;82.27;96211.70;109115;1254;61931;-86
2023/11/05 05:10:18;;;;;;;3.10;0.90;;;;;;;9.57;82.61;96200.58;109077;1254;60367;-85
2023/11/05 05:12:45;;;;;;;2.20;0.70;;;;;;;9.60;82.89;96187.14;109247;1253;74965;-87
2023/11/05 05:15:12;;;;;;;0.80;0.50;;;;;;;9.65;83.00;96191.70;109249;1253;74769;-86
2023/11/05 05:17:39;;;;;;;2.30;0.60;;;;;;;9.70;82.83;96180.45;109210;1254;71495;-87
2023/11/05 05:20:08;;;;;;;2.60;0.80;;;;;;;9.76;82.77;96173.64;109288;1253;62058;-85
2023/11/05 05:22:35;;;;;;;0.70;0.70;;;;;;;9.82;82.92;96164.48;109298;1254;58965;-86
2023/11/05 05:25:03;;;;;;;2.60;1.80;;;;;;;9.87;82.88;96171.66;109201;1254;73385;-88
2023/11/05 05:27:30;;;;;;;1.80;1.20;;;;;;;9.90;82.87;96161.13;109084;1254;74923;-88
2023/11/05 05:29:59;;;;;;;3.50;1.80;;;;;;;9.94;82.64;96177.48;109320;1253;71491;-88
2023/11/05 05:32:27;;;;;;;1.90;1.10;;;;;;;9.97;82.56;96179.86;109202;1252;62109;-88
2023/11/05 05:34:54;;;;;;;1.00;0.90;;;;;;;10.01;82.32;96190.77;109132;1254;58982;-88
2023/11/05 05:37:21;;;;;;;0.70;0.60;;;;;;;10.04;81.97;96196.53;109001;1253;73860;-88
2023/11/05 05:39:48;;;;;;;1.10;0.70;;;;;;;10.08;81.81;96186.27;109265;1253;74326;-88
2023/11/05 05:42:15;;;;;;;0.60;0.60;;;;;;;10.10;81.62;96190.27;109285;1253;72666;-87
2023/11/05 05:44:42;;;;;;;1.90;0.80;;;;;;;10.14;81.41;96179.02;109331;1253;60023;-88
2023/11/05 05:47:09;;;;;;;1.30;0.80;;;;;;;10.18;81.31;96186.46;109341;1253;58877;-88
2023/11/05 05:49:36;;;;;;;1.40;0.90;;;;;;;10.21;81.40;96183.52;109377;1253;72032;-89
2023/11/05 05:52:04;;;;;;;1.10;0.80;;;;;;;10.23;81.37;96177.27;109519;1253;73106;-86
2023/11/05 05:54:31;;;;;;;1.90;0.80;;;;;;;10.25;81.49;96172.55;109098;1252;72474;-86
2023/11/05 05:56:58;;;;;;;1.10;0.70;;;;;;;10.27;81.47;96173.97;109234;1252;60729;-87
2023/11/05 05:59:25;;;;;;;0.60;0.50;;;;;;;10.28;81.41;96177.37;109124;1252;59127;-87
2023/11/05 06:01:52;;;;;;;3.90;0.70;;;;;;;10.30;81.48;96182.70;109238;1253;73991;-87
2023/11/05 06:04:20;;;;;;;1.30;0.80;;;;;;;10.32;81.28;96197.02;109315;1253;75595;-87
2023/11/05 06:06:47;;;;;;;1.30;0.70;;;;;;;10.35;81.28;96200.52;109185;1253;72655;-87
2023/11/05 06:09:19;;;;;;;1.50;0.60;;;;;;;10.38;81.14;96198.04;109301;1253;60701;-87
2023/11/05 06:11:47;;;;;;;1.80;0.80;;;;;;;10.42;81.26;96190.15;109241;1252;60551;-87
2023/11/05 06:14:14;;;;;;;1.10;0.90;;;;;;;10.45;81.17;96187.98;109118;1254;72747;-87
2023/11/05 06:16:41;;;;;;;1.10;0.60;;;;;;;10.49;80.94;96186.30;109179;1253;75348;-87
2023/11/05 06:19:09;;;;;;;0.80;0.70;;;;;;;10.54;80.94;96180.18;109132;1253;71433;-87
2023/11/05 06:21:36;;;;;;;0.60;0.60;;;;;;;10.57;80.51;96183.16;109307;1253;61960;-87
2023/11/05 06:24:04;;;;;;;0.60;0.60;;;;;;;10.63;80.02;96179.77;109297;1253;58963;-87
2023/11/05 06:26:31;;;;;;;1.00;0.90;;;;;;;10.68;79.52;96173.30;109245;1253;74801;-88
2023/11/05 06:28:58;;;;;;;0.70;0.70;;;;;;;10.75;79.19;96175.77;109030;1253;72887;-87
2023/11/05 06:31:25;;;;;;;2.50;1.00;;;;;;;10.83;78.86;96171.52;109295;1253;71447;-88
2023/11/05 06:33:52;;;;;;;1.20;1.10;;;;;;;10.90;78.83;96176.59;109035;1254;61010;-88
2023/11/05 06:36:20;;;;;;;1.20;0.60;;;;;;;10.95;78.70;96166.52;109188;1254;58934;-87
2023/11/05 06:38:47;;;;;;;1.30;0.90;;;;;;;11.01;78.56;96169.24;109119;1254;74745;-88
2023/11/05 06:41:15;;;;;;;0.90;0.90;;;;;;;11.07;78.65;96165.39;109071;1254;72838;-88
2023/11/05 06:43:42;;;;;;;2.50;1.30;;;;;;;11.13;78.66;96162.11;109209;1253;73618;-88
2023/11/05 06:46:09;;;;;;;1.40;0.70;;;;;;;11.17;78.40;96158.64;109227;1252;60808;-88
2023/11/05 06:48:37;;;;;;;5.10;1.20;;;;;;;11.20;78.60;96154.55;109269;1253;59031;-88
2023/11/05 06:51:04;;;;;;;0.90;0.70;;;;;;;11.23;78.83;96154.38;109172;1253;73035;-88
2023/11/05 06:53:31;;;;;;;0.80;0.60;;;;;;;11.26;78.97;96144.11;109054;1253;74915;-88
2023/11/05 06:55:59;;;;;;;1.00;0.60;;;;;;;11.28;79.18;96146.90;109033;1252;71503;-88
2023/11/05 06:58:26;;;;;;;1.90;1.30;;;;;;;11.28;79.53;96142.73;109015;1252;62745;-88
2023/11/05 07:00:53;;;;;;;1.90;0.90;;;;;;;11.30;79.72;96140.01;109292;1253;59163;-88
2023/11/05 07:03:23;;;;;;;1.10;0.80;;;;;;;11.32;79.94;96129.39;109320;1252;73721;-88
2023/11/05 07:05:51;;;;;;;1.40;1.20;;;;;;;11.34;80.25;96129.96;109242;1252;75549;-87
2023/11/05 07:08:19;;;;;;;4.30;1.60;;;;;;;11.34;80.23;96130.23;109144;1252;72790;-88
2023/11/05 07:10:46;;;;;;;1.00;0.90;;;;;;;11.37;80.63;96135.88;109290;1253;62639;-87
2023/11/05 07:13:14;;;;;;;1.60;1.20;;;;;;;11.38;81.01;96145.66;109155;1252;60127;-87
2023/11/05 07:15:43;;;;;;;1.50;1.00;;;;;;;11.38;81.44;96151.50;109017;1254;72489;-87
2023/11/05 07:18:10;;;;;;;3.70;2.10;;;;;;;11.39;81.60;96153.42;109273;1253;75222;-86
2023/11/05 07:20:38;;;;;;;1.40;1.30;;;;;;;11.41;81.94;96151.94;109183;1254;73746;-88
2023/11/05 07:23:06;;;;;;;1.20;1.10;;;;;;;11.41;81.95;96157.28;109446;1253;62104;-86
2023/11/05 07:25:33;;;;;;;0.60;0.60;;;;;;;11.43;82.11;96155.28;109278;1254;60513;-86
2023/11/05 07:28:00;;;;;;;2.20;1.30;;;;;;;11.44;82.03;96155.92;109183;1255;72273;-87
2023/11/05 07:30:28;;;;;;;1.20;0.80;;;;;;;11.44;82.04;96152.29;109286;1252;73094;-87
2023/11/05 07:32:55;;;;;;;1.70;0.70;;;;;;;11.45;81.96;96152.69;109263;1254;72621;-87
2023/11/05 07:35:23;;;;;;;1.00;0.60;;;;;;;11.46;81.90;96154.91;109225;1253;61163;-87
2023/11/05 07:37:50;;;;;;;0.90;0.80;;;;;;;11.48;81.75;96155.95;109081;1253;59779;-87
2023/11/05 07:40:18;;;;;;;2.90;2.00;;;;;;;11.50;81.72;96151.27;109140;1253;72344;-87
2023/11/05 07:42:45;;;;;;;2.90;0.90;;;;;;;11.52;81.50;96140.16;109426;1254;73905;-87
2023/11/05 07:45:12;;;;;;;0.50;0.50;;;;;;;11.54;81.74;96152.62;109353;1253;72567;-88
2023/11/05 07:47:40;;;;;;;1.00;0.80;;;;;;;11.57;81.52;96157.88;109074;1253;60698;-87
2023/11/05 07:50:13;;;;;;;1.00;0.80;;;;;;;11.60;81.33;96149.16;109014;1253;59258;-87
2023/11/05 07:52:43;;;;;;;1.00;0.80;;;;;;;11.63;81.32;96136.33;109016;1254;73772;-87
2023/11/05 07:55:11;;;;;;;1.40;0.70;;;;;;;11.65;81.21;96134.81;109179;1253;74353;-87
2023/11/05 07:57:38;;;;;;;1.40;0.90;;;;;;;11.68;81.31;96138.76;109013;1254;72929;-86
2023/11/05 08:00:07;;;;;;;0.90;0.80;;;;;;;11.72;81.00;96139.21;109176;1254;59406;-88
2023/11/05 08:02:40;;;;;;;2.20;0.70;;;;;;;11.76;81.13;96136.11;109205;1254;60139;-88
2023/11/05 08:05:08;;;;;;;2.20;0.90;;;;;;;11.80;81.01;96124.08;109114;1253;74955;-86
2023/11/05 08:07:35;;;;;;;1.60;0.90;;;;;;;11.83;80.89;96126.57;109195;1253;74490;-87
2023/11/05 08:10:06;;;;;;;1.40;1.10;;;;;;;11.87;80.96;96133.25;108909;1254;72682;-87
2023/11/05 08:12:34;;;;;;;0.90;0.80;;;;;;;11.90;81.00;96130.52;109233;1253;63031;-87
2023/11/05 08:15:01;;;;;;;1.20;0.80;;;;;;;11.94;81.07;96132.94;109166;1253;59114;-87
2023/11/05 08:17:34;;;;;;;1.40;0.80;;;;;;;11.96;81.10;96142.21;108936;1254;74819;-88
2023/11/05 08:20:03;;;;;;;0.80;0.80;;;;;;;11.96;81.26;96139.13;109040;1253;73176;-88
2023/11/05 08:22:30;;;;;;;1.70;0.90;;;;;;;11.97;81.43;96128.00;109108;1253;72859;-88
2023/11/05 08:24:58;;;;;;;1.90;0.90;;;;;;;11.96;81.54;96122.34;109291;1253;59847;-87
2023/11/05 08:27:25;;;;;;;1.00;0.90;;;;;;;11.96;81.48;96122.11;109377;1254;59298;-87
2023/11/05 08:29:53;;;;;;;1.60;0.60;;;;;;;11.97;81.11;96110.20;109485;1253;73842;-87
2023/11/05 08:32:21;;;;;;;1.80;0.80;;;;;;;11.99;81.19;96120.88;109411;1254;73329;-88
2023/11/05 08:34:49;;;;;;;0.50;0.50;;;;;;;12.02;81.13;96123.23;109424;1254;72605;-86
2023/11/05 08:37:17;;;;;;;0.80;0.70;;;;;;;12.07;81.07;96127.53;109283;1253;60651;-87
2023/11/05 08:39:44;;;;;;;3.10;1.20;;;;;;;12.10;80.78;96129.27;109405;1253;60646;-87
2023/11/05 08:42:13;;;;;;;4.40;1.10;;;;;;;12.15;80.63;96145.52;109550;1254;72212;-87
2023/11/05 08:44:41;;;;;;;1.00;0.60;;;;;;;12.18;80.36;96153.55;109566;1253;73126;-87
2023/11/05 08:47:08;;;;;;;3.00;0.60;;;;;;;12.21;79.97;96162.38;109573;1253;70858;-88
2023/11/05 08:49:35;;;;;;;0.90;0.80;;;;;;;12.22;79.09;96142.70;109574;1253;60414;-87
2023/11/05 08:52:04;;;;;;;1.60;0.70;;;;;;;12.23;79.17;96139.83;109602;1252;59035;-88
2023/11/05 08:54:33;;;;;;;1.80;1.00;;;;;;;12.24;78.77;96149.32;109373;1254;73715;-88
2023/11/05 08:57:00;;;;;;;3.20;1.10;;;;;;;12.24;78.79;96156.48;109290;1254;74055;-89
2023/11/05 08:59:27;;;;;;;1.20;0.90;;;;;;;12.24;78.39;96144.44;109444;1253;73961;-87
2023/11/05 09:01:55;;;;;;;2.10;1.20;;;;;;;12.23;78.28;96147.73;109604;1253;61581;-87
2023/11/05 09:04:23;;;;;;;2.80;0.90;;;;;;;12.23;78.18;96145.28;109612;1253;58728;-87
2023/11/05 09:06:50;;;;;;;1.50;0.80;;;;;;;12.21;77.64;96147.08;109517;1254;74630;-86
2023/11/05 09:09:19;;;;;;;1.40;0.60;;;;;;;12.20;77.38;96143.33;109426;1254;74288;-88
2023/11/05 09:11:46;;;;;;;2.60;0.90;;;;;;;12.18;77.08;96152.98;109600;1253;71678;-86
2023/11/05 09:14:13;;;;;;;2.20;1.00;;;;;;;12.16;76.91;96149.95;109561;1253;61572;-88
2023/11/05 09:16:41;;;;;;;1.30;0.70;;;;;;;12.15;76.75;96140.06;109380;1253;59951;-87
2023/11/05 09:19:08;;;;;;;2.50;1.40;;;;;;;12.13;76.74;96143.33;109292;1254;73471;-86
2023/11/05 09:21:41;;;;;;;2.40;1.30;;;;;;;12.12;76.98;96141.15;109448;1253;73178;-85
2023/11/05 09:24:09;;;;;;;1.10;1.00;;;;;;;12.09;77.02;96134.79;109453;1254;71833;-88
2023/11/05 09:26:38;;;;;;;1.40;0.90;;;;;;;12.08;77.03;96123.79;109401;1253;61968;-88
2023/11/05 09:29:05;;;;;;;1.30;1.00;;;;;;;12.08;77.12;96105.73;109493;1253;60044;-87
2023/11/05 09:31:32;;;;;;;1.00;0.90;;;;;;;12.08;77.08;96096.02;109511;1253;92820;-87
2023/11/05 09:34:00;;;;;;;3.60;1.30;;;;;;;12.08;77.28;96078.23;109568;1252;73483;-88
2023/11/05 09:36:29;;;;;;;1.90;1.40;;;;;;;12.10;77.15;96063.89;109603;1253;72730;-87
2023/11/05 09:38:56;;;;;;;2.90;1.60;;;;;;;12.09;77.18;96058.17;109276;1253;60394;-87
2023/11/05 09:41:25;;;;;;;1.40;1.00;;;;;;;12.10;77.27;96052.05;109218;1254;59168;-87
2023/11/05 09:43:52;;;;;;;1.10;0.90;;;;;;;12.11;77.30;96039.35;109038;1253;72293;-87
2023/11/05 09:46:22;;;;;;;2.20;1.40;;;;;;;12.12;77.29;96038.52;109232;1252;73433;-87
2023/11/05 09:48:49;;;;;;;2.00;1.20;;;;;;;12.13;77.44;96033.21;109059;1253;75352;-88
2023/11/05 09:51:16;;;;;;;2.70;1.20;;;;;;;12.13;77.45;96028.23;108984;1252;61628;-87
2023/11/05 09:53:46;;;;;;;1.70;0.80;;;;;;;12.13;77.17;96025.70;109150;1253;60419;-88
2023/11/05 09:56:13;;;;;;;4.70;1.90;;;;;;;12.13;76.87;96024.02;109250;1252;74010;-87
2023/11/05 09:58:41;;;;;;;1.20;1.00;;;;;;;12.12;76.41;96027.89;109313;1252;75267;-88
2023/11/05 10:01:08;;;;;;;2.00;1.10;;;;;;;12.12;75.57;96016.63;109186;1253;73826;-87
2023/11/05 10:03:38;;;;;;;4.60;1.10;;;;;;;12.13;74.97;96015.86;109305;1253;61245;-89
2023/11/05 10:06:06;;;;;;;1.40;0.90;;;;;;;12.14;74.52;96017.70;109435;1252;59030;-87
2023/11/05 10:08:34;;;;;;;2.30;0.80;;;;;;;12.16;74.01;96016.05;109454;1254;71825;-86
2023/11/05 10:11:01;;;;;;;1.80;0.80;;;;;;;12.18;73.65;96015.63;109619;1253;72236;-87
2023/11/05 10:13:29;;;;;;;1.80;0.80;;;;;;;12.19;73.09;96000.02;109356;1254;72701;-87
2023/11/05 10:16:00;;;;;;;1.40;0.80;;;;;;;12.20;72.58;96003.64;109246;1254;61621;-86
2023/11/05 10:18:27;;;;;;;2.20;0.90;;;;;;;12.23;72.27;96006.42;109322;1254;60359;-89
2023/11/05 10:20:55;;;;;;;0.80;0.60;;;;;;;12.25;72.14;96005.63;109341;1253;72662;-88
2023/11/05 10:23:23;;;;;;;1.80;0.80;;;;;;;12.29;72.03;96005.75;109263;1254;74179;-87
2023/11/05 10:25:54;;;;;;;2.20;1.00;;;;;;;12.32;71.65;96005.64;109262;1254;72699;-87
2023/11/05 10:28:23;;;;;;;2.20;1.20;;;;;;;12.35;71.40;96007.95;109300;1253;61904;-87
2023/11/05 10:30:52;;;;;;;1.20;0.80;;;;;;;12.38;70.99;96010.96;109326;1253;60239;-87
2023/11/05 10:33:24;;;;;;;1.90;0.80;;;;;;;12.42;71.09;96009.97;109172;1253;73430;-87
2023/11/05 10:35:53;;;;;;;2.20;0.90;;;;;;;12.45;70.94;96011.77;109252;1253;72441;-88
2023/11/05 10:38:23;;;;;;;3.40;0.80;;;;;;;12.48;70.37;96011.98;109187;1254;73530;-88
2023/11/05 10:40:53;;;;;;;1.70;0.90;;;;;;;12.50;69.68;96023.98;109059;1254;61683;-89
2023/11/05 10:43:21;;;;;;;1.30;1.10;;;;;;;12.51;68.89;96002.88;109142;1254;59355;-87
2023/11/05 10:45:52;;;;;;;2.40;1.20;;;;;;;12.53;68.09;96004.65;109268;1253;72583;-88
2023/11/05 10:48:19;;;;;;;1.60;0.80;;;;;;;12.54;68.19;95995.13;109285;1253;74301;-88
2023/11/05 10:50:47;;;;;;;3.00;0.80;;;;;;;12.58;67.82;95989.34;109285;1254;72628;-88
2023/11/05 10:53:14;;;;;;;0.70;0.50;;;;;;;12.61;67.77;95977.27;109033;1254;59451;-88
2023/11/05 10:55:41;;;;;;;2.70;0.70;;;;;;;12.65;67.63;95968.77;109315;1253;60252;-87
2023/11/05 10:58:09;;;;;;;1.20;0.60;;;;;;;12.71;67.53;95949.40;109192;1254;72639;-88
2023/11/05 11:00:57;;;;;;;5.90;3.50;;;;;;;12.78;67.31;95930.45;109311;1253;74593;-89
2023/11/05 11:03:25;;;;;;;6.70;3.80;;;;;;;12.84;66.56;95923.98;109238;1254;71129;-89
2023/11/05 11:05:59;;;;;;;2.50;1.40;;;;;;;12.90;66.68;95918.37;109100;1254;60297;-88
2023/11/05 11:08:28;;;;;;;1.60;0.90;;;;;;;12.96;66.40;95908.21;109194;1254;58948;-87
2023/11/05 11:11:07;;;;;;;3.40;2.00;;;;;;;13.01;65.54;95893.05;109270;1254;72595;-87
2023/11/05 11:13:38;;;;;;;18.40;8.60;;;;;;;13.04;64.70;95873.10;109213;1253;74922;-87
2023/11/05 11:16:08;;;;;;;8.10;4.90;;;;;;;13.06;64.59;95870.73;109112;1254;72109;-87
2023/11/05 11:18:36;;;;;;;2.10;1.10;;;;;;;13.08;64.13;95867.61;109298;1254;59398;-87
2023/11/05 11:21:05;;;;;;;2.40;1.10;;;;;;;13.09;63.99;95865.89;109007;1254;59092;-87
2023/11/05 11:23:33;;;;;;;1.30;0.80;;;;;;;13.09;63.99;95868.25;109335;1254;74732;-85
2023/11/05 11:26:05;;;;;;;1.80;1.10;;;;;;;13.08;64.09;95869.56;109286;1254;72998;-88
2023/11/05 11:28:33;;;;;;;4.10;1.90;;;;;;;13.09;64.62;95865.34;109336;1252;71152;-88
2023/11/05 11:31:02;;;;;;;1.90;1.70;;;;;;;13.10;65.15;95864.90;109385;1254;59988;-87